createdAt,value
2019-02-16T00:01:53.335Z,74.46
2019-02-16T00:04:25.013Z,74.49
2019-02-16T00:06:56.541Z,74.78
2019-02-16T00:09:28.373Z,74.70
2019-02-16T00:11:59.879Z,74.75
2019-02-16T00:14:32.603Z,75.00
2019-02-16T00:17:04.437Z,75.12
2019-02-16T00:19:35.953Z,74.99
2019-02-16T00:22:07.416Z,75.15
2019-02-16T00:24:39.208Z,75.09
2019-02-16T00:27:10.692Z,75.03
2019-02-16T00:29:42.239Z,74.96
2019-02-16T00:32:13.999Z,75.08
2019-02-16T00:34:45.524Z,75.12
2019-02-16T00:37:16.985Z,75.01
2019-02-16T00:39:48.639Z,75.08
2019-02-16T00:42:20.169Z,75.10
2019-02-16T00:44:51.862Z,75.01
2019-02-16T00:47:23.348Z,75.05
2019-02-16T00:49:55.181Z,74.99
2019-02-16T00:52:26.649Z,74.99
2019-02-16T00:54:58.680Z,74.92
2019-02-16T00:57:30.441Z,74.92
2019-02-16T01:00:02.206Z,74.87
2019-02-16T01:02:35.527Z,74.73
2019-02-16T01:05:07.876Z,74.92
2019-02-16T01:07:39.364Z,75.13
2019-02-16T01:10:11.509Z,75.34
2019-02-16T01:12:44.149Z,75.52
2019-02-16T01:15:15.724Z,75.54
2019-02-16T01:17:47.169Z,75.62
2019-02-16T01:20:18.849Z,75.59
2019-02-16T01:22:50.279Z,75.49
2019-02-16T01:25:22.102Z,75.53
2019-02-16T01:27:53.542Z,75.87
2019-02-16T01:30:25.192Z,76.31
2019-02-16T01:32:56.644Z,76.14
2019-02-16T01:35:28.260Z,76.08
2019-02-16T01:37:59.725Z,76.27
2019-02-16T01:40:31.676Z,76.20
2019-02-16T01:43:03.410Z,76.06
2019-02-16T01:45:35.188Z,76.06
2019-02-16T01:48:06.645Z,76.09
2019-02-16T01:50:38.164Z,75.94
2019-02-16T01:53:09.640Z,75.85
2019-02-16T01:55:41.297Z,75.83
2019-02-16T01:58:12.774Z,75.65
2019-02-16T02:00:44.262Z,75.54
2019-02-16T02:03:15.724Z,75.69
2019-02-16T02:05:47.418Z,75.77
2019-02-16T02:08:18.898Z,76.28
2019-02-16T02:10:50.614Z,76.44
2019-02-16T02:13:22.148Z,76.48
2019-02-16T02:15:53.681Z,76.47
2019-02-16T02:18:25.265Z,76.49
2019-02-16T02:20:56.794Z,76.34
2019-02-16T02:23:28.247Z,76.25
2019-02-16T02:26:03.226Z,76.29
2019-02-16T02:28:34.687Z,76.31
2019-02-16T02:31:06.227Z,76.25
2019-02-16T02:33:37.705Z,76.04
2019-02-16T02:36:09.457Z,76.16
2019-02-16T02:38:40.963Z,76.11
2019-02-16T02:41:13.072Z,75.96
2019-02-16T02:43:44.637Z,75.91
2019-02-16T02:46:16.206Z,75.99
2019-02-16T02:48:47.641Z,75.90
2019-02-16T02:51:19.292Z,76.01
2019-02-16T02:53:50.744Z,76.15
2019-02-16T02:56:24.891Z,76.20
2019-02-16T02:58:56.341Z,76.25
2019-02-16T03:01:27.849Z,76.27
2019-02-16T03:04:00.620Z,76.41
2019-02-16T03:06:32.400Z,76.32
2019-02-16T03:09:04.750Z,76.22
2019-02-16T03:11:38.175Z,76.07
2019-02-16T03:14:09.634Z,76.17
2019-02-16T03:16:41.483Z,76.23
2019-02-16T03:19:12.925Z,76.07
2019-02-16T03:21:44.586Z,76.01
2019-02-16T03:24:17.463Z,75.84
2019-02-16T03:26:56.299Z,76.15
2019-02-16T03:30:29.663Z,76.26
2019-02-16T03:33:51.309Z,76.58
2019-02-16T03:37:22.583Z,76.65
2019-02-16T03:39:54.341Z,76.56
2019-02-16T03:42:26.076Z,76.54
2019-02-16T03:44:57.766Z,76.58
2019-02-16T03:47:29.257Z,76.45
2019-02-16T03:50:01.082Z,76.33
2019-02-16T03:52:32.531Z,76.21
2019-02-16T03:55:04.179Z,76.15
2019-02-16T03:57:35.873Z,76.04
2019-02-16T04:00:08.556Z,76.00
2019-02-16T04:02:39.986Z,75.77
2019-02-16T04:05:11.725Z,75.59
2019-02-16T04:07:43.421Z,75.43
2019-02-16T04:10:15.136Z,75.42
2019-02-16T04:12:47.263Z,75.24
2019-02-16T04:15:19.426Z,75.28
2019-02-16T04:17:53.710Z,75.21
2019-02-16T04:20:25.235Z,75.45
2019-02-16T04:22:56.671Z,75.57
2019-02-16T04:25:28.464Z,75.59
2019-02-16T04:28:00.477Z,75.61
2019-02-16T04:30:32.297Z,75.83
2019-02-16T04:33:03.765Z,76.16
2019-02-16T04:35:35.257Z,76.17
2019-02-16T04:38:06.718Z,76.31
2019-02-16T04:40:38.247Z,76.39
2019-02-16T04:43:11.362Z,76.51
2019-02-16T04:45:43.061Z,76.67
2019-02-16T04:48:17.491Z,76.68
2019-02-16T04:50:49.001Z,76.50
2019-02-16T04:53:20.458Z,76.44
2019-02-16T04:55:52.134Z,76.38
2019-02-16T04:58:23.857Z,76.31
2019-02-16T05:00:55.678Z,76.28
2019-02-16T05:03:27.127Z,76.47
2019-02-16T05:05:59.869Z,76.46
2019-02-16T05:08:32.773Z,76.54
2019-02-16T05:11:05.962Z,76.79
2019-02-16T05:13:37.646Z,76.82
2019-02-16T05:16:09.371Z,76.80
2019-02-16T05:18:42.381Z,76.82
2019-02-16T05:21:13.891Z,77.43
2019-02-16T05:23:45.396Z,77.75
2019-02-16T05:26:16.911Z,77.58
2019-02-16T05:28:48.676Z,77.66
2019-02-16T05:31:20.175Z,78.31
2019-02-16T05:33:51.678Z,78.19
2019-02-16T05:36:23.185Z,78.16
2019-02-16T05:38:54.755Z,78.18
2019-02-16T05:41:26.345Z,79.39
2019-02-16T05:43:57.825Z,79.18
2019-02-16T05:46:29.320Z,78.86
2019-02-16T05:49:00.865Z,78.54
2019-02-16T05:51:32.428Z,78.33
2019-02-16T05:54:03.890Z,78.08
2019-02-16T05:56:35.366Z,78.04
2019-02-16T05:59:08.164Z,77.84
2019-02-16T06:01:40.106Z,77.83
2019-02-16T06:04:11.578Z,77.77
2019-02-16T06:06:43.132Z,77.73
2019-02-16T06:09:14.918Z,77.73
2019-02-16T06:11:46.627Z,77.53
2019-02-16T06:14:19.283Z,77.44
2019-02-16T06:16:50.994Z,77.44
2019-02-16T06:19:22.425Z,77.42
2019-02-16T06:21:53.954Z,77.32
2019-02-16T06:24:25.512Z,77.34
2019-02-16T06:26:57.312Z,77.11
2019-02-16T06:29:31.853Z,77.16
2019-02-16T06:32:03.592Z,77.23
2019-02-16T06:34:37.680Z,77.10
2019-02-16T06:37:22.552Z,76.96
2019-02-16T06:39:54.743Z,77.02
2019-02-16T06:42:26.788Z,76.95
2019-02-16T06:44:58.206Z,76.82
2019-02-16T06:47:29.747Z,76.86
2019-02-16T06:50:01.218Z,77.07
2019-02-16T06:52:34.132Z,77.14
2019-02-16T06:55:05.645Z,77.09
2019-02-16T06:57:37.239Z,77.11
2019-02-16T07:00:10.435Z,77.41
2019-02-16T07:02:41.978Z,77.89
2019-02-16T07:05:13.460Z,78.66
2019-02-16T07:07:45.082Z,79.21
2019-02-16T07:10:16.550Z,79.06
2019-02-16T07:12:48.301Z,78.93
2019-02-16T07:15:20.017Z,78.40
2019-02-16T07:17:57.575Z,78.33
2019-02-16T07:20:29.000Z,78.70
2019-02-16T07:23:00.576Z,78.28
2019-02-16T07:25:34.760Z,78.18
2019-02-16T07:28:06.255Z,78.54
2019-02-16T07:30:38.102Z,78.39
2019-02-16T07:33:09.717Z,78.44
2019-02-16T07:35:41.197Z,78.78
2019-02-16T07:38:12.864Z,78.54
2019-02-16T07:40:44.309Z,78.33
2019-02-16T07:43:37.492Z,78.22
2019-02-16T07:46:15.180Z,78.29
2019-02-16T07:48:58.586Z,78.02
2019-02-16T07:51:41.650Z,77.87
2019-02-16T07:54:40.502Z,77.57
2019-02-16T07:57:27.849Z,77.44
2019-02-16T08:00:19.762Z,77.50
2019-02-16T08:02:57.214Z,77.32
2019-02-16T08:05:56.575Z,77.40
2019-02-16T08:08:45.857Z,77.57
2019-02-16T08:11:42.145Z,77.44
2019-02-16T08:14:24.456Z,77.22
2019-02-16T08:17:21.125Z,77.51
2019-02-16T08:20:17.679Z,77.22
2019-02-16T08:23:10.934Z,76.76
2019-02-16T08:26:10.350Z,76.40
2019-02-16T08:29:00.222Z,76.10
2019-02-16T08:32:06.174Z,75.98
2019-02-16T08:34:56.478Z,75.76
2019-02-16T08:37:49.935Z,75.44
2019-02-16T08:40:46.167Z,75.69
2019-02-16T08:43:35.197Z,75.41
2019-02-16T08:46:24.112Z,75.58
2019-02-16T08:49:20.409Z,76.35
2019-02-16T08:52:07.222Z,75.68
2019-02-16T08:54:48.729Z,75.60
2019-02-16T08:57:37.740Z,75.34
2019-02-16T09:00:23.589Z,75.23
2019-02-16T09:03:05.195Z,75.18
2019-02-16T09:05:51.087Z,75.07
2019-02-16T09:08:41.412Z,74.79
2019-02-16T09:11:30.231Z,74.31
2019-02-16T09:14:13.561Z,74.10
2019-02-16T09:16:57.925Z,73.74
2019-02-16T09:19:38.649Z,73.24
2019-02-16T09:22:30.427Z,73.03
2019-02-16T09:25:19.769Z,72.89
2019-02-16T09:28:04.250Z,72.98
2019-02-16T09:30:57.723Z,72.89
2019-02-16T09:33:41.834Z,73.15
2019-02-16T09:36:32.457Z,72.66
2019-02-16T09:39:32.511Z,73.25
2019-02-16T09:42:41.316Z,73.50
2019-02-16T09:45:21.087Z,73.70
2019-02-16T09:48:16.729Z,73.56
2019-02-16T09:50:56.067Z,73.16
2019-02-16T09:53:52.742Z,73.12
2019-02-16T09:56:46.176Z,73.69
2019-02-16T09:59:27.391Z,73.86
2019-02-16T10:02:17.745Z,73.82
2019-02-16T10:04:58.143Z,73.58
2019-02-16T10:08:00.467Z,73.17
2019-02-16T10:10:51.354Z,72.91
2019-02-16T10:13:38.483Z,72.67
2019-02-16T10:16:28.027Z,72.48
2019-02-16T10:19:17.219Z,72.06
2019-02-16T10:22:10.415Z,71.63
2019-02-16T10:25:00.604Z,71.02
2019-02-16T10:28:06.206Z,71.20
2019-02-16T10:31:00.680Z,70.09
2019-02-16T10:33:39.209Z,69.02
2019-02-16T10:36:36.151Z,67.79
2019-02-16T10:39:30.136Z,68.83
2019-02-16T10:42:09.811Z,67.25
2019-02-16T10:45:12.381Z,67.99
2019-02-16T10:47:54.127Z,66.91
2019-02-16T10:50:47.361Z,67.35
2019-02-16T10:53:49.974Z,66.89
2019-02-16T10:56:28.369Z,67.08
2019-02-16T10:59:18.849Z,67.63
2019-02-16T11:02:03.381Z,67.32
2019-02-16T11:04:52.473Z,66.45
2019-02-16T11:07:46.230Z,64.92
2019-02-16T11:10:34.518Z,63.12
2019-02-16T11:13:32.538Z,62.87
2019-02-16T11:16:21.466Z,62.42
2019-02-16T11:19:05.062Z,62.42
2019-02-16T11:21:46.650Z,63.34
2019-02-16T11:24:37.049Z,62.59
2019-02-16T11:27:26.353Z,62.46
2019-02-16T11:30:15.752Z,61.89
2019-02-16T11:33:24.159Z,62.53
2019-02-16T11:36:05.154Z,64.37
2019-02-16T11:38:45.742Z,63.63
2019-02-16T11:41:36.315Z,63.20
2019-02-16T11:44:26.832Z,63.02
2019-02-16T11:47:23.780Z,63.10
2019-02-16T11:50:14.132Z,62.30
2019-02-16T11:53:07.287Z,60.93
2019-02-16T11:55:56.355Z,61.98
2019-02-16T11:58:52.554Z,62.38
2019-02-16T12:01:31.178Z,61.57
2019-02-16T12:04:20.528Z,60.68
2019-02-16T12:07:07.393Z,60.21
2019-02-16T12:10:06.850Z,59.73
2019-02-16T12:13:15.331Z,59.04
2019-02-16T12:16:08.632Z,58.39
2019-02-16T12:18:57.676Z,57.64
2019-02-16T12:21:42.780Z,57.37
2019-02-16T12:25:03.011Z,56.73
2019-02-16T12:27:56.211Z,56.20
2019-02-16T12:30:46.540Z,55.24
2019-02-16T12:33:51.989Z,54.96
2019-02-16T12:36:54.359Z,53.55
2019-02-16T12:39:35.818Z,53.18
2019-02-16T12:42:21.349Z,52.56
2019-02-16T12:45:18.997Z,52.47
2019-02-16T12:48:06.112Z,51.73
2019-02-16T12:51:14.824Z,48.31
2019-02-16T12:54:09.050Z,41.89
2019-02-16T12:57:12.089Z,39.41
2019-02-16T12:59:59.890Z,42.43
2019-02-16T13:03:02.405Z,44.29
2019-02-16T13:05:44.528Z,44.07
2019-02-16T13:08:26.006Z,42.85
2019-02-16T13:11:07.415Z,43.01
2019-02-16T13:13:57.973Z,43.27
2019-02-16T13:16:48.294Z,42.88
2019-02-16T13:19:34.228Z,42.00
2019-02-16T13:22:27.599Z,40.72
2019-02-16T13:25:05.066Z,35.48
2019-02-16T13:28:00.570Z,31.16
2019-02-16T13:30:41.411Z,30.75
2019-02-16T13:33:31.784Z,29.46
2019-02-16T13:36:21.989Z,27.97
2019-02-16T13:39:11.126Z,26.40
2019-02-16T13:41:52.150Z,26.44
2019-02-16T13:44:36.407Z,26.71
2019-02-16T13:47:17.753Z,26.07
2019-02-16T13:49:56.512Z,25.11
2019-02-16T13:52:52.761Z,24.96
2019-02-16T13:55:45.865Z,23.75
2019-02-16T13:58:39.299Z,23.90
2019-02-16T14:01:20.916Z,22.79
2019-02-16T14:04:07.976Z,21.17
2019-02-16T14:06:50.711Z,21.11
2019-02-16T14:09:41.377Z,20.34
2019-02-16T14:12:31.721Z,19.60
2019-02-16T14:15:21.673Z,18.36
2019-02-16T14:17:53.126Z,17.11
2019-02-16T14:20:24.715Z,16.45
2019-02-16T14:22:56.178Z,15.92
2019-02-16T14:25:42.294Z,15.62
2019-02-16T14:28:09.314Z,15.52
2019-02-16T14:30:41.334Z,15.87
2019-02-16T14:33:12.798Z,15.46
2019-02-16T14:35:45.620Z,15.32
2019-02-16T14:38:27.663Z,15.79
2019-02-16T14:40:59.340Z,15.84
2019-02-16T14:43:30.791Z,15.84
2019-02-16T14:46:04.214Z,15.71
2019-02-16T14:48:35.872Z,15.82
2019-02-16T14:51:07.585Z,15.92
2019-02-16T14:53:39.285Z,16.20
2019-02-16T14:56:11.102Z,16.63
2019-02-16T14:58:42.580Z,17.00
2019-02-16T15:01:14.075Z,16.84
2019-02-16T15:03:45.545Z,16.77
2019-02-16T15:06:19.652Z,17.03
2019-02-16T15:08:51.564Z,17.59
2019-02-16T15:11:23.294Z,20.78
2019-02-16T15:13:54.761Z,23.59
2019-02-16T15:16:26.401Z,25.91
2019-02-16T15:18:57.943Z,27.82
2019-02-16T15:21:29.582Z,29.92
2019-02-16T15:24:02.078Z,32.04
2019-02-16T15:26:35.429Z,33.08
2019-02-16T15:29:07.090Z,34.54
2019-02-16T15:31:38.687Z,36.30
2019-02-16T15:34:10.200Z,37.75
2019-02-16T15:36:41.750Z,38.92
2019-02-16T15:39:13.445Z,40.10
2019-02-16T15:41:45.224Z,41.01
2019-02-16T15:44:16.776Z,41.94
2019-02-16T15:46:48.392Z,42.80
2019-02-16T15:49:19.915Z,43.63
2019-02-16T15:51:51.697Z,44.39
2019-02-16T15:54:23.468Z,45.21
2019-02-16T15:56:55.274Z,46.30
2019-02-16T15:59:35.086Z,47.24
2019-02-16T16:02:01.299Z,47.83
2019-02-16T16:04:32.771Z,48.44
2019-02-16T16:07:06.144Z,48.92
2019-02-16T16:09:49.400Z,49.59
2019-02-16T16:12:41.876Z,50.33
2019-02-16T16:15:25.966Z,51.02
2019-02-16T16:18:20.090Z,51.64
2019-02-16T16:21:16.590Z,52.13
2019-02-16T16:24:06.991Z,52.75
2019-02-16T16:26:49.675Z,53.25
2019-02-16T16:29:52.534Z,53.69
2019-02-16T16:32:36.503Z,54.07
2019-02-16T16:35:24.255Z,54.44
2019-02-16T16:38:02.741Z,54.79
2019-02-16T16:40:58.934Z,55.35
2019-02-16T16:43:55.213Z,55.49
2019-02-16T16:47:04.067Z,55.84
2019-02-16T16:50:16.823Z,56.03
2019-02-16T16:53:00.989Z,56.20
2019-02-16T16:55:51.591Z,56.54
2019-02-16T16:58:47.740Z,56.70
2019-02-16T17:01:27.468Z,56.87
2019-02-16T17:04:29.817Z,57.33
2019-02-16T17:07:20.258Z,57.42
2019-02-16T17:10:01.753Z,57.70
2019-02-16T17:12:52.641Z,57.84
2019-02-16T17:15:37.649Z,57.98
2019-02-16T17:18:27.287Z,58.23
2019-02-16T17:21:16.957Z,58.35
2019-02-16T17:23:58.753Z,58.61
2019-02-16T17:26:55.324Z,58.80
2019-02-16T17:29:32.683Z,59.02
2019-02-16T17:32:11.303Z,59.41
2019-02-16T17:34:55.267Z,59.56
2019-02-16T17:37:36.323Z,59.80
2019-02-16T17:40:32.783Z,59.95
2019-02-16T17:43:26.456Z,60.13
2019-02-16T17:46:26.154Z,60.27
2019-02-16T17:49:35.102Z,60.46
2019-02-16T17:52:28.404Z,60.71
2019-02-16T17:55:21.628Z,60.80
2019-02-16T17:58:12.396Z,60.87
2019-02-16T18:00:52.594Z,61.05
2019-02-16T18:03:46.259Z,61.13
2019-02-16T18:06:42.610Z,61.24
2019-02-16T18:09:48.254Z,61.21
2019-02-16T18:12:33.384Z,61.28
2019-02-16T18:15:17.975Z,61.28
2019-02-16T18:18:14.489Z,61.45
2019-02-16T18:21:02.471Z,61.47
2019-02-16T18:23:56.086Z,61.53
2019-02-16T18:26:55.854Z,61.53
2019-02-16T18:29:43.028Z,61.70
2019-02-16T18:32:32.539Z,61.81
2019-02-16T18:35:41.228Z,61.89
2019-02-16T18:38:30.386Z,61.96
2019-02-16T18:41:24.959Z,62.11
2019-02-16T18:44:15.618Z,62.15
2019-02-16T18:47:06.018Z,62.32
2019-02-16T18:50:02.574Z,62.42
2019-02-16T18:53:05.234Z,62.51
2019-02-16T18:55:49.430Z,62.57
2019-02-16T18:58:32.215Z,62.72
2019-02-16T19:01:12.979Z,62.92
2019-02-16T19:04:09.678Z,63.10
2019-02-16T19:07:06.600Z,63.31
2019-02-16T19:09:51.065Z,63.32
2019-02-16T19:12:36.443Z,63.49
2019-02-16T19:15:29.657Z,63.54
2019-02-16T19:18:24.591Z,63.62
2019-02-16T19:21:14.992Z,63.68
2019-02-16T19:23:51.425Z,63.78
2019-02-16T19:26:59.974Z,63.98
2019-02-16T19:29:49.345Z,64.09
2019-02-16T19:32:31.207Z,64.26
2019-02-16T19:35:26.011Z,64.41
2019-02-16T19:38:07.390Z,64.55
2019-02-16T19:41:02.145Z,64.70
2019-02-16T19:43:51.476Z,64.81
2019-02-16T19:46:44.771Z,64.98
2019-02-16T19:49:32.299Z,65.21
2019-02-16T19:52:21.758Z,65.51
2019-02-16T19:55:09.041Z,65.62
2019-02-16T19:57:56.994Z,66.03
2019-02-16T20:00:39.066Z,66.17
2019-02-16T20:03:35.222Z,66.47
2019-02-16T20:06:28.876Z,66.60
2019-02-16T20:09:19.401Z,66.56
2019-02-16T20:12:08.918Z,66.73
2019-02-16T20:15:02.771Z,66.76
2019-02-16T20:17:48.163Z,66.71
2019-02-16T20:20:51.140Z,66.69
2019-02-16T20:23:33.557Z,66.75
2019-02-16T20:26:22.959Z,66.81
2019-02-16T20:29:13.317Z,66.96
2019-02-16T20:32:10.009Z,67.08
2019-02-16T20:34:54.394Z,67.18
2019-02-16T20:38:00.149Z,67.17
2019-02-16T20:40:53.382Z,67.24
2019-02-16T20:43:54.067Z,67.31
2019-02-16T20:46:34.076Z,67.30
2019-02-16T20:49:24.720Z,67.44
2019-02-16T20:52:30.523Z,67.56
2019-02-16T20:55:10.438Z,67.51
2019-02-16T20:58:06.697Z,67.55
2019-02-16T21:00:59.048Z,67.59
2019-02-16T21:03:58.757Z,67.61
2019-02-16T21:06:50.760Z,67.79
2019-02-16T21:09:47.490Z,67.76
2019-02-16T21:12:27.587Z,67.91
2019-02-16T21:15:30.428Z,67.89
2019-02-16T21:18:10.630Z,67.88
2019-02-16T21:21:00.078Z,67.92
2019-02-16T21:24:08.743Z,67.93
2019-02-16T21:26:57.150Z,67.94
2019-02-16T21:30:05.875Z,68.08
2019-02-16T21:32:43.448Z,68.17
2019-02-16T21:35:31.736Z,68.23
2019-02-16T21:38:25.188Z,68.20
2019-02-16T21:41:05.797Z,68.28
2019-02-16T21:43:55.347Z,68.29
2019-02-16T21:46:46.445Z,68.31
2019-02-16T21:49:42.742Z,68.44
2019-02-16T21:52:42.063Z,68.52
2019-02-16T21:55:29.522Z,68.52
2019-02-16T21:58:27.456Z,68.53
2019-02-16T22:01:16.858Z,68.58
2019-02-16T22:03:59.551Z,68.55
2019-02-16T22:06:59.181Z,68.56
2019-02-16T22:09:49.692Z,68.51
2019-02-16T22:12:33.512Z,68.49
2019-02-16T22:15:13.664Z,68.55
2019-02-16T22:17:45.539Z,68.49
2019-02-16T22:20:17.555Z,68.41
2019-02-16T22:22:49.666Z,65.83
2019-02-16T22:25:21.537Z,63.62
2019-02-16T22:27:53.790Z,62.39
2019-02-16T22:30:25.557Z,61.23
2019-02-16T22:32:57.511Z,60.38
2019-02-16T22:35:29.408Z,59.68
2019-02-16T22:38:01.754Z,58.75
2019-02-16T22:40:33.551Z,58.14
2019-02-16T22:43:05.692Z,58.60
2019-02-16T22:45:37.507Z,57.05
2019-02-16T22:48:09.821Z,56.27
2019-02-16T22:50:41.660Z,56.03
2019-02-16T22:53:13.984Z,55.64
2019-02-16T22:55:45.814Z,55.11
2019-02-16T22:58:17.764Z,54.42
2019-02-16T23:00:52.296Z,54.27
2019-02-16T23:03:24.655Z,53.71
2019-02-16T23:05:56.508Z,54.01
2019-02-16T23:08:29.753Z,53.75
2019-02-16T23:11:03.301Z,53.62
2019-02-16T23:13:36.426Z,53.38
2019-02-16T23:16:09.458Z,52.67
2019-02-16T23:18:41.574Z,52.75
2019-02-16T23:21:13.386Z,52.62
2019-02-16T23:23:45.351Z,51.96
2019-02-16T23:26:17.210Z,51.70
2019-02-16T23:28:49.197Z,51.71
2019-02-16T23:31:21.601Z,51.88
2019-02-16T23:33:53.409Z,51.49
2019-02-16T23:36:25.334Z,51.44
2019-02-16T23:38:57.264Z,51.30
2019-02-16T23:41:29.076Z,51.09
2019-02-16T23:44:01.116Z,50.99
2019-02-16T23:46:34.216Z,50.42
2019-02-16T23:49:06.249Z,50.38
2019-02-16T23:51:38.008Z,50.60
2019-02-16T23:54:10.016Z,50.60
2019-02-16T23:56:44.717Z,50.66
2019-02-16T23:59:16.704Z,50.64
